Time;durP1;ratioP1;P1;durP2;ratioP2;P2;SDS_P1;SDS_P2;PMS_P1;PMS_P2;Temp;Humidity;BMP_temperature;BMP_pressure;BME280_temperature;BME280_humidity;BME280_pressure;Samples;Min_cycle;Max_cycle;Signal;HPM_P1;HPM_P2
2021/12/08 00:01:36;;;;;;;0.60;0.60;;;3.10;64.80;2.30;96750.00;;;;5114729;28;20213;-72
2021/12/08 00:04:03;;;;;;;1.33;1.20;;;3.20;64.90;2.30;96739.00;;;;5114784;28;20289;-73
2021/12/08 00:06:30;;;;;;;0.70;0.70;;;3.20;65.00;2.40;96719.00;;;;5114421;28;20300;-72
2021/12/08 00:09:04;;;;;;;0.80;0.80;;;3.20;64.30;2.30;96751.00;;;;5096940;28;20212;-72
2021/12/08 00:14:18;;;;;;;0.60;0.60;;;3.10;64.60;2.20;96751.00;;;;5114593;28;20325;-72
2021/12/08 00:16:46;;;;;;;1.10;1.10;;;3.20;64.30;2.30;96751.00;;;;5114943;28;20304;-73
2021/12/08 00:19:12;;;;;;;1.00;1.00;;;3.10;63.60;2.30;96746.00;;;;5114840;28;20326;-73
2021/12/08 00:21:39;;;;;;;1.27;1.13;;;3.20;63.50;2.30;96745.00;;;;5114949;28;20239;-73
2021/12/08 00:24:09;;;;;;;1.57;1.47;;;3.10;64.00;2.30;96741.00;;;;5114816;28;20201;-73
2021/12/08 00:26:36;;;;;;;1.00;1.00;;;3.20;64.00;2.50;96746.00;;;;5114619;28;20209;-74
2021/12/08 00:29:04;;;;;;;1.10;1.10;;;3.20;64.10;2.40;96755.00;;;;5114585;28;20343;-73
2021/12/08 00:31:30;;;;;;;0.80;0.80;;;3.30;64.50;2.40;96744.00;;;;5114600;28;20246;-73
2021/12/08 00:33:58;;;;;;;0.77;0.77;;;3.30;64.60;2.40;96751.00;;;;5114324;28;20235;-74
2021/12/08 00:36:31;;;;;;;0.70;0.70;;;3.30;65.30;2.50;96733.00;;;;5116192;28;20238;-73
2021/12/08 00:38:57;;;;;;;0.87;0.87;;;3.30;65.40;2.50;96746.00;;;;5118046;28;20241;-73
2021/12/08 00:41:26;;;;;;;1.17;1.17;;;3.30;65.40;2.50;96730.00;;;;5100171;28;20207;-72
2021/12/08 00:43:53;;;;;;;0.60;0.60;;;3.30;65.80;2.50;96724.00;;;;5099916;28;20228;-73
2021/12/08 00:46:22;;;;;;;1.00;1.00;;;3.30;66.00;2.50;96732.00;;;;5117822;28;20203;-72
2021/12/08 00:48:51;;;;;;;0.90;0.90;;;3.30;66.00;2.50;96729.00;;;;5099935;28;20311;-73
2021/12/08 00:51:20;;;;;;;0.93;0.93;;;3.40;66.20;2.60;96722.00;;;;5117669;28;20228;-73
2021/12/08 00:53:47;;;;;;;0.70;0.70;;;3.40;66.80;2.60;96726.00;;;;5117612;28;20303;-73
2021/12/08 00:56:15;;;;;;;0.63;0.63;;;3.40;68.10;2.50;96705.00;;;;5099785;28;20248;-73
2021/12/08 00:58:42;;;;;;;0.63;0.63;;;3.40;66.80;2.50;96717.00;;;;5117748;28;20643;-73
2021/12/08 01:01:08;;;;;;;0.60;0.60;;;3.40;68.30;2.50;96729.00;;;;5117703;28;20218;-73
2021/12/08 01:03:38;;;;;;;0.67;0.67;;;3.40;67.30;2.50;96733.00;;;;5099642;28;20252;-73
2021/12/08 01:06:06;;;;;;;0.90;0.90;;;3.40;66.80;2.50;96727.00;;;;5099545;28;20190;-72
2021/12/08 01:08:34;;;;;;;0.50;0.50;;;3.40;65.50;2.60;96723.00;;;;5117505;28;20234;-73
2021/12/08 01:11:09;;;;;;;0.53;0.53;;;3.40;65.10;2.50;96740.00;;;;5117457;28;20306;-73
2021/12/08 01:13:36;;;;;;;0.83;0.83;;;3.40;64.70;2.60;96749.00;;;;5117351;28;20250;-72
2021/12/08 01:16:03;;;;;;;0.60;0.60;;;3.40;65.50;2.60;96743.00;;;;5099362;28;20270;-73
2021/12/08 01:18:31;;;;;;;0.63;0.63;;;3.40;65.60;2.30;96753.00;;;;5117424;28;20535;-73
2021/12/08 01:21:02;;;;;;;0.77;0.77;;;3.30;65.80;2.60;96750.00;;;;5117321;28;20310;-72
2021/12/08 01:23:31;;;;;;;0.60;0.60;;;3.40;66.00;2.60;96752.00;;;;5117304;28;20201;-73
2021/12/08 01:25:59;;;;;;;0.97;0.93;;;3.40;66.70;2.50;96730.00;;;;5117451;28;20619;-73
2021/12/08 01:28:28;;;;;;;0.77;0.77;;;3.40;67.40;2.40;96763.00;;;;5117173;28;20200;-73
2021/12/08 01:30:59;;;;;;;0.80;0.80;;;3.30;68.00;2.40;96752.00;;;;5099059;28;20221;-73
2021/12/08 01:33:28;;;;;;;0.70;0.70;;;3.30;68.60;2.50;96745.00;;;;5116876;28;20716;-72
2021/12/08 01:35:55;;;;;;;0.60;0.60;;;3.30;69.10;2.50;96739.00;;;;5117088;28;20617;-73
2021/12/08 01:38:22;;;;;;;0.70;0.70;;;3.30;69.90;2.50;96724.00;;;;5117079;28;20279;-73
2021/12/08 01:40:52;;;;;;;0.60;0.60;;;3.30;70.80;2.50;96724.00;;;;5116892;28;20217;-73
2021/12/08 01:43:27;;;;;;;0.80;0.80;;;3.30;71.00;2.40;96687.00;;;;5099004;28;20221;-72
2021/12/08 01:46:02;;;;;;;0.80;0.80;;;3.30;71.20;2.50;96709.00;;;;5116860;28;20207;-72
2021/12/08 01:48:34;;;;;;;0.83;0.83;;;3.30;71.30;2.40;96684.00;;;;5097772;28;20537;-72
2021/12/08 01:51:04;;;;;;;1.40;1.20;;;3.30;71.50;2.40;96715.00;;;;5116751;28;20220;-73
2021/12/08 01:53:32;;;;;;;0.60;0.60;;;3.30;72.10;2.30;96712.00;;;;5116578;28;20232;-72
2021/12/08 01:55:59;;;;;;;0.97;0.77;;;3.20;72.20;2.40;96712.00;;;;5116673;28;20282;-73
2021/12/08 01:58:28;;;;;;;0.70;0.70;;;3.30;73.00;2.30;96710.00;;;;5116821;28;20193;-72
2021/12/08 02:00:58;;;;;;;0.60;0.60;;;3.20;72.70;2.40;96723.00;;;;5116600;28;20239;-73
2021/12/08 02:03:28;;;;;;;0.83;0.83;;;3.20;72.90;2.30;96719.00;;;;5116661;28;20201;-73
2021/12/08 02:05:56;;;;;;;0.60;0.60;;;3.20;72.90;2.40;96712.00;;;;5116488;28;20367;-72
2021/12/08 02:08:24;;;;;;;1.13;1.13;;;3.20;73.20;2.30;96735.00;;;;5116452;28;20739;-72
2021/12/08 02:10:54;;;;;;;0.60;0.60;;;3.20;73.10;2.40;96721.00;;;;5116420;28;20224;-73
2021/12/08 02:13:22;;;;;;;0.60;0.60;;;3.20;73.30;2.40;96721.00;;;;5116342;28;20237;-72
2021/12/08 02:15:49;;;;;;;1.13;1.07;;;3.20;74.10;2.30;96705.00;;;;5116402;28;20189;-73
2021/12/08 02:18:18;;;;;;;0.50;0.50;;;3.20;73.90;2.40;96722.00;;;;5116477;28;20322;-74
2021/12/08 02:20:48;;;;;;;0.60;0.60;;;3.30;74.30;2.50;96724.00;;;;5116479;28;20316;-73
2021/12/08 02:23:17;;;;;;;0.60;0.60;;;3.30;75.00;2.40;96714.00;;;;5116504;28;20204;-73
2021/12/08 02:25:49;;;;;;;0.70;0.70;;;3.20;75.50;2.40;96716.00;;;;5116329;28;20624;-73
2021/12/08 02:28:18;;;;;;;0.83;0.83;;;3.30;75.70;2.40;96740.00;;;;5116395;28;20650;-73
2021/12/08 02:30:50;;;;;;;0.60;0.60;;;3.30;75.80;2.50;96734.00;;;;5116268;28;20227;-73
2021/12/08 02:47:30;;;;;;;2.13;1.03;;;3.40;77.70;2.50;96713.00;;;;5115912;28;20221;-72
2021/12/08 02:49:57;;;;;;;0.70;0.70;;;3.40;77.80;2.50;96725.00;;;;5115901;28;20227;-73
2021/12/08 02:52:26;;;;;;;0.63;0.63;;;3.40;78.30;2.40;96703.00;;;;5115794;28;20213;-72
2021/12/08 02:54:54;;;;;;;2.63;1.33;;;3.40;78.20;2.50;96707.00;;;;5116040;28;20655;-72
2021/12/08 02:57:26;;;;;;;0.87;0.87;;;3.30;78.50;2.40;96701.00;;;;5115798;28;20681;-73
2021/12/08 02:59:53;;;;;;;0.50;0.50;;;3.30;79.00;2.40;96690.00;;;;5115441;28;20223;-74
2021/12/08 03:02:20;;;;;;;1.43;1.33;;;3.30;78.90;2.50;96666.00;;;;5115780;28;20698;-72
2021/12/08 03:04:47;;;;;;;0.60;0.60;;;3.30;79.30;2.50;96672.00;;;;5097802;28;20519;-73
2021/12/08 03:07:14;;;;;;;0.60;0.60;;;3.30;79.40;2.50;96675.00;;;;5115618;28;20221;-73
2021/12/08 03:09:40;;;;;;;0.80;0.80;;;3.30;79.70;2.40;96690.00;;;;5115580;28;20303;-72
2021/12/08 03:12:09;;;;;;;0.63;0.63;;;3.30;79.50;2.40;96682.00;;;;5115469;28;20239;-72
2021/12/08 03:14:37;;;;;;;0.63;0.63;;;3.30;79.90;2.40;96682.00;;;;5115516;28;20570;-73
2021/12/08 03:17:09;;;;;;;0.93;0.80;;;3.20;80.00;2.40;96690.00;;;;5115448;28;20233;-73
2021/12/08 03:19:36;;;;;;;0.77;0.77;;;3.30;80.50;2.40;96690.00;;;;5097456;28;20231;-73
2021/12/08 03:22:09;;;;;;;0.60;0.60;;;3.30;80.40;2.50;96698.00;;;;5115332;28;20197;-72
2021/12/08 03:24:39;;;;;;;0.80;0.80;;;3.30;80.60;2.50;96680.00;;;;5115337;28;20270;-73
2021/12/08 03:27:12;;;;;;;0.93;0.93;;;3.30;80.50;2.40;96673.00;;;;5097182;28;20286;-73
2021/12/08 03:29:48;;;;;;;0.83;0.83;;;3.30;80.50;2.40;96686.00;;;;5115319;28;20245;-73
2021/12/08 03:32:23;;;;;;;1.07;1.07;;;3.30;80.70;2.40;96695.00;;;;5115040;28;20217;-73
2021/12/08 03:34:51;;;;;;;0.50;0.50;;;3.30;81.00;2.40;96692.00;;;;5115412;28;20210;-72
2021/12/08 03:37:23;;;;;;;1.00;1.00;;;3.20;81.00;2.50;96688.00;;;;5115226;28;20652;-73
2021/12/08 03:39:50;;;;;;;1.20;1.20;;;3.30;81.40;2.50;96686.00;;;;5097196;28;20236;-73
2021/12/08 03:42:20;;;;;;;0.60;0.60;;;3.30;81.70;2.50;96693.00;;;;5115085;28;20189;-73
2021/12/08 03:44:47;;;;;;;0.80;0.80;;;3.30;81.70;2.50;96682.00;;;;5115145;28;20630;-72
2021/12/08 03:47:17;;;;;;;0.60;0.60;;;3.30;81.70;2.50;96656.00;;;;5115199;28;20202;-73
2021/12/08 03:49:48;;;;;;;0.60;0.60;;;3.30;81.70;2.50;96671.00;;;;5097257;28;20247;-73
2021/12/08 03:52:15;;;;;;;0.83;0.83;;;3.40;81.70;2.50;96680.00;;;;5114824;28;20610;-73
2021/12/08 03:54:41;;;;;;;2.50;1.77;;;3.30;81.50;2.50;96673.00;;;;5114915;28;20193;-73
2021/12/08 03:57:10;;;;;;;0.70;0.70;;;3.40;81.90;2.50;96685.00;;;;5114884;28;20215;-72
2021/12/08 03:59:37;;;;;;;0.70;0.70;;;3.30;81.90;2.50;96684.00;;;;5114775;28;20345;-73
2021/12/08 04:02:04;;;;;;;0.67;0.67;;;3.30;82.10;2.50;96680.00;;;;5114814;28;20220;-73
2021/12/08 04:04:42;;;;;;;0.70;0.70;;;3.30;82.40;2.50;96672.00;;;;5114768;28;20385;-74
2021/12/08 04:07:12;;;;;;;0.97;0.97;;;3.40;82.40;2.50;96670.00;;;;5114902;28;20211;-72
2021/12/08 04:09:40;;;;;;;1.80;1.70;;;3.30;82.50;2.50;96669.00;;;;5114742;28;20197;-73
2021/12/08 04:12:10;;;;;;;0.60;0.60;;;3.40;82.50;2.50;96676.00;;;;5113907;28;20695;-73
2021/12/08 04:14:42;;;;;;;1.33;1.23;;;3.40;82.50;2.60;96673.00;;;;5113803;28;20211;-73
2021/12/08 04:17:18;;;;;;;1.60;1.37;;;3.40;82.70;2.60;96682.00;;;;5114645;28;20209;-74
2021/12/08 04:19:46;;;;;;;0.90;0.90;;;3.40;82.40;2.60;96684.00;;;;5114559;28;20234;-73
2021/12/08 04:22:21;;;;;;;0.70;0.70;;;3.40;82.50;2.50;96693.00;;;;5114797;28;20580;-73
2021/12/08 04:24:52;;;;;;;0.70;0.70;;;3.40;82.60;2.60;96685.00;;;;5114811;28;20208;-73
2021/12/08 04:27:25;;;;;;;0.63;0.63;;;3.40;82.80;2.50;96701.00;;;;5114829;28;20303;-73
2021/12/08 04:29:52;;;;;;;0.70;0.70;;;3.40;83.00;2.60;96688.00;;;;5114796;28;20258;-73
2021/12/08 04:32:23;;;;;;;0.70;0.70;;;3.40;83.50;2.60;96685.00;;;;5096339;28;20529;-73
2021/12/08 04:34:55;;;;;;;0.83;0.83;;;3.40;83.60;2.60;96682.00;;;;5114467;28;20206;-73
2021/12/08 04:37:37;;;;;;;0.93;0.93;;;3.40;83.80;2.60;96697.00;;;;5114366;28;20205;-72
2021/12/08 04:40:20;;;;;;;1.70;0.97;;;3.40;84.60;2.60;96689.00;;;;5114326;28;20219;-72
2021/12/08 04:42:58;;;;;;;0.70;0.70;;;3.50;84.10;2.60;96690.00;;;;5096400;28;20652;-73
2021/12/08 04:45:40;;;;;;;1.30;1.20;;;3.40;84.40;2.60;96691.00;;;;5114125;28;20295;-72
2021/12/08 04:48:20;;;;;;;0.83;0.83;;;3.50;84.80;2.70;96658.00;;;;5114149;28;20200;-73
2021/12/08 04:51:16;;;;;;;0.80;0.80;;;3.50;85.30;2.80;96692.00;;;;5114044;28;20310;-73
2021/12/08 04:54:05;;;;;;;1.10;1.10;;;3.60;85.50;2.90;96695.00;;;;5114057;28;20235;-73
2021/12/08 05:02:32;;;;;;;1.40;0.93;;;3.80;86.00;3.10;96674.00;;;;5113333;28;20515;-73
2021/12/08 05:05:12;;;;;;;0.70;0.70;;;3.90;86.20;3.00;96670.00;;;;5114023;28;20274;-72
2021/12/08 05:07:50;;;;;;;0.80;0.80;;;3.90;86.10;3.10;96672.00;;;;5114009;28;20235;-72
2021/12/08 05:10:28;;;;;;;0.80;0.80;;;3.90;86.50;3.00;96689.00;;;;5113843;28;20339;-73
2021/12/08 05:12:57;;;;;;;0.80;0.80;;;3.90;86.60;3.10;96689.00;;;;5113826;28;20310;-73
2021/12/08 05:15:32;;;;;;;0.70;0.70;;;4.00;86.70;3.10;96687.00;;;;5096025;28;20266;-73
2021/12/08 05:18:04;;;;;;;1.10;1.10;;;;;3.10;96701.00;;;;5113980;28;20194;-73
2021/12/08 05:20:39;;;;;;;0.93;0.93;;;4.00;86.10;3.20;96692.00;;;;5113885;28;20281;-73
2021/12/08 05:23:12;;;;;;;0.60;0.60;;;4.00;87.00;3.20;96696.00;;;;5116676;28;20193;-73
2021/12/08 05:25:42;;;;;;;1.80;1.70;;;4.00;86.90;3.20;96701.00;;;;5099306;28;20267;-73
2021/12/08 05:28:13;;;;;;;0.73;0.73;;;4.00;87.20;3.20;96695.00;;;;5117295;28;20336;-73
2021/12/08 05:30:45;;;;;;;1.00;1.00;;;4.10;87.60;3.30;96701.00;;;;5117107;28;20304;-73
2021/12/08 05:33:14;;;;;;;0.67;0.67;;;4.10;87.70;3.40;96707.00;;;;5117071;28;20305;-73
2021/12/08 05:35:45;;;;;;;1.13;0.90;;;4.20;87.10;3.40;96712.00;;;;5117298;28;20193;-72
2021/12/08 05:38:13;;;;;;;2.30;1.33;;;4.30;87.00;3.40;96706.00;;;;5117174;28;20724;-73
2021/12/08 05:40:49;;;;;;;0.60;0.60;;;4.30;86.50;3.40;96708.00;;;;5117082;28;20213;-73
2021/12/08 05:43:19;;;;;;;0.70;0.70;;;4.20;86.50;3.30;96713.00;;;;5099103;28;20207;-72
2021/12/08 05:45:51;;;;;;;0.60;0.60;;;4.20;86.60;3.50;96711.00;;;;5116895;28;20228;-72
2021/12/08 05:48:20;;;;;;;1.60;1.23;;;4.30;86.50;3.60;96713.00;;;;5116817;28;20194;-74
2021/12/08 05:50:54;;;;;;;2.00;1.63;;;4.40;86.20;3.50;96718.00;;;;5116985;28;20224;-72
2021/12/08 05:53:22;;;;;;;0.90;0.90;;;4.40;85.50;3.60;96709.00;;;;5116925;28;20281;-72
2021/12/08 05:55:50;;;;;;;4.80;1.20;;;4.40;85.80;3.40;96701.00;;;;5116592;28;20216;-72
2021/12/08 05:58:20;;;;;;;0.90;0.90;;;4.40;85.70;3.60;96677.00;;;;5116545;28;20504;-72
2021/12/08 06:00:52;;;;;;;0.90;0.90;;;4.40;85.10;3.50;96676.00;;;;5116733;28;20198;-72
2021/12/08 06:03:21;;;;;;;1.43;1.37;;;4.40;85.80;3.60;96651.00;;;;5116713;28;20197;-72
2021/12/08 06:05:51;;;;;;;1.07;1.00;;;4.30;86.20;3.70;96642.00;;;;5116417;28;20228;-72
2021/12/08 06:08:19;;;;;;;2.90;1.77;;;4.40;86.40;3.50;96666.00;;;;5116584;28;20193;-72
2021/12/08 06:10:47;;;;;;;0.80;0.80;;;4.40;86.30;3.70;96662.00;;;;5116400;28;20214;-72
2021/12/08 06:13:18;;;;;;;3.03;1.23;;;4.50;86.20;3.60;96661.00;;;;5116422;28;20248;-73
2021/12/08 06:15:48;;;;;;;1.53;1.43;;;4.50;86.20;3.60;96664.00;;;;5116431;28;20221;-73
2021/12/08 06:18:20;;;;;;;1.57;1.47;;;;;3.60;96659.00;;;;5116413;28;20204;-72
2021/12/08 06:20:48;;;;;;;0.93;0.93;;;;;3.60;96659.00;;;;5098656;28;20263;-72
2021/12/08 06:23:17;;;;;;;0.90;0.90;;;;;3.60;96637.00;;;;5116709;28;20205;-72
2021/12/08 06:25:47;;;;;;;0.90;0.90;;;;;3.70;96633.00;;;;5116477;28;20317;-72
2021/12/08 06:28:14;;;;;;;3.60;0.97;;;;;3.80;96625.00;;;;5116444;28;20204;-72
2021/12/08 06:30:45;;;;;;;0.70;0.70;;;;;3.70;96618.00;;;;5116160;28;20527;-72
2021/12/08 06:33:14;;;;;;;0.80;0.80;;;4.60;86.90;3.70;96632.00;;;;5115651;28;20304;-72
2021/12/08 06:35:45;;;;;;;0.70;0.70;;;4.60;87.50;3.70;96624.00;;;;5116257;28;20285;-72
2021/12/08 06:38:18;;;;;;;0.70;0.70;;;4.60;87.50;3.80;96641.00;;;;5116092;28;20210;-72
2021/12/08 06:40:50;;;;;;;0.80;0.80;;;4.60;88.20;3.80;96643.00;;;;5116123;28;20277;-72
2021/12/08 06:43:23;;;;;;;0.60;0.60;;;4.60;87.60;3.80;96649.00;;;;5116211;28;20201;-72
2021/12/08 06:45:54;;;;;;;0.90;0.90;;;4.60;87.70;3.80;96640.00;;;;5116040;28;20308;-72
2021/12/08 06:48:27;;;;;;;0.70;0.70;;;4.70;87.60;3.80;96643.00;;;;5116122;28;20186;-72
2021/12/08 06:51:02;;;;;;;0.60;0.60;;;4.70;87.60;3.90;96650.00;;;;5098015;28;20221;-72
2021/12/08 06:53:31;;;;;;;1.20;1.20;;;4.70;87.70;3.90;96659.00;;;;5115911;28;20281;-71
2021/12/08 06:56:04;;;;;;;1.10;1.10;;;4.70;87.10;3.80;96672.00;;;;5115816;28;20276;-72
2021/12/08 06:58:36;;;;;;;0.80;0.80;;;4.70;87.00;3.80;96666.00;;;;5115851;28;20217;-72
2021/12/08 07:01:16;;;;;;;1.03;1.03;;;4.70;87.30;3.70;96669.00;;;;5115792;28;20266;-72
2021/12/08 07:04:07;;;;;;;0.80;0.80;;;4.60;87.50;3.80;96668.00;;;;5115689;28;20284;-72
2021/12/08 07:06:45;;;;;;;0.80;0.80;;;4.60;87.70;3.80;96683.00;;;;5115424;28;20528;-72
2021/12/08 07:09:19;;;;;;;1.00;1.00;;;4.60;87.40;3.70;96684.00;;;;5115776;28;20221;-71
2021/12/08 07:11:47;;;;;;;1.07;1.07;;;4.60;87.40;3.80;96684.00;;;;5115391;28;20790;-72
2021/12/08 07:14:14;;;;;;;0.67;0.67;;;4.60;87.50;3.90;96701.00;;;;5115609;28;20190;-72
2021/12/08 07:16:49;;;;;;;0.60;0.60;;;4.70;87.70;3.80;96706.00;;;;5115471;28;20239;-72
2021/12/08 07:19:29;;;;;;;0.80;0.80;;;4.70;87.30;3.90;96713.00;;;;5115268;28;20225;-72
2021/12/08 07:21:58;;;;;;;1.00;1.00;;;4.70;87.40;3.80;96712.00;;;;5115008;28;20190;-74
2021/12/08 07:24:30;;;;;;;1.17;1.10;;;4.70;87.30;3.80;96706.00;;;;5115177;28;20241;-73
2021/12/08 07:27:03;;;;;;;0.87;0.87;;;4.70;87.20;3.80;96706.00;;;;5115372;28;20190;-71
2021/12/08 07:29:34;;;;;;;1.37;1.30;;;4.70;87.30;3.80;96707.00;;;;5115362;28;20221;-71
2021/12/08 07:32:10;;;;;;;7.30;1.03;;;4.70;87.10;3.80;96697.00;;;;5115252;28;20230;-73
2021/12/08 07:34:40;;;;;;;0.97;0.97;;;4.70;87.10;3.80;96700.00;;;;5115368;28;20225;-72
2021/12/08 07:37:12;;;;;;;0.87;0.87;;;4.70;87.30;3.90;96689.00;;;;5115146;28;20222;-72
2021/12/08 07:39:47;;;;;;;0.70;0.70;;;4.70;87.20;4.00;96683.00;;;;5097372;28;20266;-72
2021/12/08 07:42:20;;;;;;;1.03;1.03;;;4.70;87.00;3.90;96672.00;;;;5115122;28;20293;-72
2021/12/08 07:44:54;;;;;;;1.10;1.10;;;4.80;86.60;4.00;96675.00;;;;5114655;28;20189;-72
2021/12/08 07:47:24;;;;;;;0.93;0.93;;;4.80;86.40;3.90;96678.00;;;;5114696;28;20281;-71
2021/12/08 07:49:58;;;;;;;0.70;0.70;;;4.70;86.30;4.00;96620.00;;;;5115015;28;20202;-72
2021/12/08 07:52:30;;;;;;;0.70;0.70;;;4.80;87.10;4.00;96660.00;;;;5114612;28;20298;-73
2021/12/08 07:54:57;;;;;;;0.90;0.90;;;4.80;86.40;4.00;96660.00;;;;5114833;28;20275;-73
2021/12/08 07:57:29;;;;;;;0.60;0.60;;;4.80;86.40;4.10;96671.00;;;;5115023;28;20226;-73
2021/12/08 08:00:05;;;;;;;0.80;0.80;;;4.80;86.40;4.10;96671.00;;;;5114844;28;20272;-73
2021/12/08 08:02:35;;;;;;;0.97;0.97;;;4.90;86.50;4.00;96673.00;;;;5114848;28;20213;-72
2021/12/08 08:05:05;;;;;;;0.97;0.97;;;4.90;87.20;4.10;96668.00;;;;5097073;28;20210;-73
2021/12/08 08:07:32;;;;;;;2.10;2.00;;;4.90;86.60;4.10;96675.00;;;;5114752;28;20228;-73
2021/12/08 08:10:01;;;;;;;0.80;0.80;;;4.90;86.70;4.10;96688.00;;;;5114890;28;20208;-73
2021/12/08 08:12:33;;;;;;;0.83;0.83;;;4.90;86.70;4.10;96690.00;;;;5114623;28;20298;-73
2021/12/08 08:15:09;;;;;;;0.83;0.83;;;5.00;86.70;4.00;96680.00;;;;5114503;28;20221;-73
2021/12/08 08:17:41;;;;;;;1.57;1.47;;;4.90;86.80;4.10;96686.00;;;;5096759;28;20292;-74
2021/12/08 08:20:16;;;;;;;1.00;1.00;;;4.90;87.10;4.10;96686.00;;;;5114913;28;20271;-74
2021/12/08 08:22:46;;;;;;;0.60;0.60;;;4.90;87.10;4.10;96685.00;;;;5096852;28;20601;-74
2021/12/08 08:25:20;;;;;;;0.80;0.80;;;4.90;87.10;4.20;96689.00;;;;5114476;28;20675;-73
2021/12/08 08:27:49;;;;;;;0.90;0.90;;;5.00;87.20;4.10;96685.00;;;;5114345;28;20217;-74
2021/12/08 08:30:22;;;;;;;0.87;0.87;;;5.00;86.90;4.20;96688.00;;;;5114551;28;20213;-72
2021/12/08 08:32:53;;;;;;;0.60;0.60;;;5.00;86.90;4.20;96697.00;;;;5114321;28;20751;-73
2021/12/08 08:35:28;;;;;;;1.30;1.30;;;5.00;86.90;4.20;96704.00;;;;5114458;28;20204;-72
2021/12/08 08:37:55;;;;;;;1.10;0.80;;;5.10;87.00;4.20;96701.00;;;;5114412;28;20217;-72
2021/12/08 08:40:30;;;;;;;0.83;0.83;;;5.10;87.00;4.20;96702.00;;;;5114413;28;20190;-71
2021/12/08 08:43:00;;;;;;;1.43;1.33;;;5.10;87.00;4.30;96687.00;;;;5114441;28;20189;-74
2021/12/08 08:45:33;;;;;;;2.23;0.80;;;5.10;86.90;4.30;96681.00;;;;5114277;28;20273;-73
2021/12/08 08:48:08;;;;;;;1.30;1.20;;;5.10;86.70;4.30;96692.00;;;;5114209;28;20194;-74
2021/12/08 08:50:40;;;;;;;1.47;1.37;;;5.20;86.60;4.20;96697.00;;;;5096259;28;20305;-72
2021/12/08 08:53:08;;;;;;;1.00;1.00;;;5.20;86.70;4.40;96699.00;;;;5114079;28;20217;-73
2021/12/08 08:55:40;;;;;;;0.50;0.50;;;5.20;86.60;4.50;96681.00;;;;5114219;28;20202;-74
2021/12/08 08:58:11;;;;;;;0.77;0.77;;;5.20;86.60;4.50;96653.00;;;;5116911;28;20218;-72
2021/12/08 09:00:44;;;;;;;0.80;0.80;;;5.30;86.80;4.50;96701.00;;;;5117821;28;20221;-72
2021/12/08 09:03:20;;;;;;;0.90;0.90;;;5.30;87.40;4.50;96686.00;;;;5117611;28;20198;-72
2021/12/08 09:05:52;;;;;;;0.83;0.83;;;5.30;86.40;4.50;96710.00;;;;5117611;28;20227;-71
2021/12/08 09:08:24;;;;;;;0.63;0.63;;;5.30;86.30;4.50;96713.00;;;;5117612;28;20206;-72
2021/12/08 09:10:59;;;;;;;1.57;1.13;;;5.30;86.20;4.50;96717.00;;;;5117440;28;20201;-72
2021/12/08 09:13:30;;;;;;;0.90;0.90;;;5.40;86.10;4.60;96723.00;;;;5117638;28;20276;-73
2021/12/08 09:16:04;;;;;;;1.07;1.07;;;5.30;86.20;4.60;96723.00;;;;5117619;28;20307;-74
2021/12/08 09:18:48;;;;;;;0.90;0.90;;;5.40;85.80;4.60;96724.00;;;;5117332;28;20274;-74
2021/12/08 09:21:23;;;;;;;1.87;1.00;;;5.40;85.80;4.60;96713.00;;;;5117752;28;20183;-74
2021/12/08 09:24:00;;;;;;;2.20;1.53;;;5.40;86.10;4.50;96724.00;;;;5117537;28;20203;-72
2021/12/08 09:26:31;;;;;;;0.90;0.90;;;5.40;85.70;4.60;96718.00;;;;5117465;28;20221;-72
2021/12/08 09:29:07;;;;;;;0.60;0.60;;;5.40;85.80;4.60;96729.00;;;;5117307;28;20276;-72
2021/12/08 09:31:40;;;;;;;1.00;1.00;;;5.40;85.10;4.70;96730.00;;;;5117142;28;20222;-71
2021/12/08 09:34:19;;;;;;;1.00;1.00;;;5.40;84.40;4.80;96731.00;;;;5117204;28;20289;-72
2021/12/08 09:36:58;;;;;;;0.73;0.73;;;5.50;84.50;4.60;96730.00;;;;5117028;28;20197;-77
2021/12/08 09:39:31;;;;;;;0.60;0.60;;;5.40;83.80;4.70;96743.00;;;;5099133;28;20197;-70
2021/12/08 09:42:10;;;;;;;0.63;0.63;;;5.50;84.10;4.60;96724.00;;;;5117001;28;20271;-72
2021/12/08 09:44:42;;;;;;;0.90;0.90;;;5.40;83.50;4.60;96722.00;;;;5117061;28;20232;-73
2021/12/08 09:47:08;;;;;;;0.80;0.80;;;5.50;83.80;4.60;96727.00;;;;5117146;28;20793;-72
2021/12/08 09:49:35;;;;;;;0.90;0.90;;;5.40;83.80;4.60;96732.00;;;;5116935;28;20680;-72
2021/12/08 09:52:07;;;;;;;0.80;0.80;;;5.40;83.90;4.60;96715.00;;;;5116927;28;20228;-72
2021/12/08 09:54:35;;;;;;;1.33;1.33;;;5.40;84.10;4.60;96710.00;;;;5098841;28;20266;-72
2021/12/08 09:57:06;;;;;;;0.70;0.70;;;5.50;84.30;4.70;96710.00;;;;5116753;28;20201;-71
2021/12/08 09:59:34;;;;;;;0.63;0.63;;;5.50;84.40;4.70;96698.00;;;;5116846;28;20210;-71
2021/12/08 10:02:04;;;;;;;0.60;0.60;;;5.50;84.40;4.70;96674.00;;;;5116592;28;20246;-71
2021/12/08 10:04:31;;;;;;;1.00;1.00;;;5.60;84.20;4.80;96701.00;;;;5116712;28;20194;-71
2021/12/08 10:07:02;;;;;;;0.60;0.60;;;5.60;84.20;4.80;96704.00;;;;5116772;28;20629;-72
2021/12/08 10:09:29;;;;;;;1.03;1.03;;;5.60;83.90;4.70;96696.00;;;;5115690;28;20206;-72
2021/12/08 10:11:56;;;;;;;0.90;0.90;;;5.60;83.90;4.70;96696.00;;;;5116424;28;20579;-71
2021/12/08 10:14:25;;;;;;;0.60;0.60;;;5.60;83.90;5.00;96693.00;;;;5116624;28;20233;-72
2021/12/08 10:16:55;;;;;;;1.37;1.27;;;5.60;84.10;4.90;96697.00;;;;5098674;28;20226;-73
2021/12/08 10:19:23;;;;;;;0.80;0.80;;;5.70;82.90;4.80;96695.00;;;;5116774;28;20194;-72
2021/12/08 10:21:50;;;;;;;0.97;0.97;;;5.60;82.40;4.80;96694.00;;;;5116360;28;20316;-72
2021/12/08 10:24:23;;;;;;;0.70;0.70;;;5.60;82.40;4.80;96692.00;;;;5116464;28;20662;-71
2021/12/08 10:27:03;;;;;;;1.03;1.03;;;5.60;82.40;4.80;96692.00;;;;5116251;28;20241;-72
2021/12/08 10:29:32;;;;;;;0.80;0.80;;;5.60;82.50;4.70;96666.00;;;;5116345;28;20204;-71
2021/12/08 10:32:01;;;;;;;1.77;1.40;;;5.60;82.40;4.80;96685.00;;;;5098529;28;20232;-73
2021/12/08 10:34:36;;;;;;;0.70;0.70;;;5.60;82.40;4.90;96684.00;;;;5116258;28;20231;-73
2021/12/08 10:37:10;;;;;;;0.63;0.63;;;5.60;82.40;4.80;96682.00;;;;5116223;28;20197;-71
2021/12/08 10:39:41;;;;;;;0.70;0.70;;;5.70;82.20;4.90;96679.00;;;;5098233;28;20221;-70
2021/12/08 10:42:17;;;;;;;2.90;0.90;;;5.70;81.70;4.80;96675.00;;;;5116193;28;20669;-72
2021/12/08 10:44:52;;;;;;;0.80;0.80;;;5.60;81.50;4.80;96681.00;;;;5116134;28;20205;-73
2021/12/08 10:47:22;;;;;;;0.60;0.60;;;5.60;81.70;4.90;96680.00;;;;5116178;28;20715;-72
2021/12/08 10:55:32;;;;;;;0.70;0.70;;;5.70;81.80;4.90;96663.00;;;;5115945;28;20205;-71
2021/12/08 10:57:59;;;;;;;0.80;0.80;;;5.70;80.40;4.90;96665.00;;;;5115708;28;20268;-72
2021/12/08 11:00:32;;;;;;;0.63;0.63;;;5.70;80.60;5.00;96666.00;;;;5116112;28;20198;-71
2021/12/08 11:03:01;;;;;;;1.10;1.00;;;5.70;80.80;4.90;96669.00;;;;5115718;28;20290;-72
2021/12/08 11:05:49;;;;;;;0.60;0.60;;;5.70;80.60;5.00;96670.00;;;;5115743;28;20233;-73
2021/12/08 11:08:28;;;;;;;1.13;1.10;;;5.70;80.50;5.00;96657.00;;;;5115634;28;20206;-72
2021/12/08 11:11:03;;;;;;;0.80;0.80;;;5.70;80.50;4.90;96647.00;;;;5115530;28;20244;-74
2021/12/08 11:13:35;;;;;;;0.73;0.73;;;5.70;80.00;5.20;96654.00;;;;5115593;28;20281;-71
2021/12/08 11:16:11;;;;;;;1.20;1.20;;;5.80;79.40;5.10;96612.00;;;;5115621;28;20189;-72
2021/12/08 11:18:41;;;;;;;0.90;0.90;;;5.80;78.70;5.00;96639.00;;;;5114781;28;20246;-72
2021/12/08 11:21:16;;;;;;;0.80;0.80;;;5.80;79.30;5.10;96634.00;;;;5115395;28;20229;-73
2021/12/08 11:23:46;;;;;;;0.70;0.70;;;5.80;79.60;5.10;96646.00;;;;5115357;28;20299;-71
2021/12/08 11:26:22;;;;;;;0.70;0.70;;;5.80;79.70;5.10;96639.00;;;;5115356;28;20626;-71
2021/12/08 11:28:59;;;;;;;0.70;0.70;;;5.80;79.20;5.00;96631.00;;;;5115335;28;20273;-71
2021/12/08 11:31:33;;;;;;;0.70;0.70;;;5.80;79.30;5.00;96625.00;;;;5115367;28;20257;-72
2021/12/08 11:34:01;;;;;;;0.77;0.77;;;5.80;79.30;5.00;96629.00;;;;5115550;28;20285;-71
2021/12/08 11:36:31;;;;;;;1.23;1.23;;;5.80;78.90;5.10;96621.00;;;;5115072;28;20275;-72
2021/12/08 11:39:04;;;;;;;1.43;1.33;;;5.80;79.40;5.00;96628.00;;;;5115412;28;20210;-71
2021/12/08 11:41:36;;;;;;;2.10;1.70;;;5.90;78.90;5.10;96622.00;;;;5115200;28;20223;-73
2021/12/08 11:44:11;;;;;;;1.10;1.10;;;5.90;79.00;5.10;96628.00;;;;5115220;28;20213;-73
2021/12/08 11:46:44;;;;;;;1.13;1.13;;;5.80;78.90;5.00;96633.00;;;;5115173;28;20193;-70
2021/12/08 11:49:13;;;;;;;0.90;0.90;;;5.80;78.80;5.00;96635.00;;;;5115038;28;20225;-73
2021/12/08 11:51:58;;;;;;;5.40;1.53;;;5.80;78.40;5.00;96638.00;;;;5114477;28;20367;-72
2021/12/08 11:54:34;;;;;;;0.97;0.97;;;5.80;78.80;5.10;96629.00;;;;5115088;28;20240;-72
2021/12/08 11:57:12;;;;;;;1.10;1.10;;;5.80;78.10;5.10;96639.00;;;;5097257;28;20271;-72
2021/12/08 12:00:00;;;;;;;1.17;1.17;;;5.90;78.00;5.10;96638.00;;;;5114906;28;20194;-72